Map

Track Data

SID SEASON NUMBER BASIN SUBBASIN NAME ISO_TIME NATURE LAT LON WMO_WIND WMO_PRES WMO_AGENCY TRACK_TYPE DIST2LAND LANDFALL IFLAG USA_AGENCY USA_ATCF_ID USA_LAT USA_LON USA_RECORD USA_STATUS USA_WIND USA_PRES USA_SSHS USA_R34_NE USA_R34_SE USA_R34_SW USA_R34_NW USA_R50_NE USA_R50_SE USA_R50_SW USA_R50_NW USA_R64_NE USA_R64_SE USA_R64_SW USA_R64_NW USA_POCI USA_ROCI USA_RMW USA_EYE TOKYO_LAT TOKYO_LON TOKYO_GRADE TOKYO_WIND TOKYO_PRES TOKYO_R50_DIR TOKYO_R50_LONG TOKYO_R50_SHORT TOKYO_R30_DIR TOKYO_R30_LONG TOKYO_R30_SHORT TOKYO_LAND CMA_LAT CMA_LON CMA_CAT CMA_WIND CMA_PRES HKO_LAT HKO_LON HKO_CAT HKO_WIND HKO_PRES NEWDELHI_LAT NEWDELHI_LON NEWDELHI_GRADE NEWDELHI_WIND NEWDELHI_PRES NEWDELHI_CI NEWDELHI_DP NEWDELHI_POCI REUNION_LAT REUNION_LON REUNION_TYPE REUNION_WIND REUNION_PRES REUNION_TNUM REUNION_CI REUNION_RMW REUNION_R34_NE REUNION_R34_SE REUNION_R34_SW REUNION_R34_NW REUNION_R50_NE REUNION_R50_SE REUNION_R50_SW REUNION_R50_NW REUNION_R64_NE REUNION_R64_SE REUNION_R64_SW REUNION_R64_NW BOM_LAT BOM_LON BOM_TYPE BOM_WIND BOM_PRES BOM_TNUM BOM_CI BOM_RMW BOM_R34_NE BOM_R34_SE BOM_R34_SW BOM_R34_NW BOM_R50_NE BOM_R50_SE BOM_R50_SW BOM_R50_NW BOM_R64_NE BOM_R64_SE BOM_R64_SW BOM_R64_NW BOM_ROCI BOM_POCI BOM_EYE BOM_POS_METHOD BOM_PRES_METHOD NADI_LAT NADI_LON NADI_CAT NADI_WIND NADI_PRES WELLINGTON_LAT WELLINGTON_LON WELLINGTON_WIND WELLINGTON_PRES DS824_LAT DS824_LON DS824_STAGE DS824_WIND DS824_PRES TD9636_LAT TD9636_LON TD9636_STAGE TD9636_WIND TD9636_PRES TD9635_LAT TD9635_LON TD9635_WIND TD9635_PRES TD9635_ROCI NEUMANN_LAT NEUMANN_LON NEUMANN_CLASS NEUMANN_WIND NEUMANN_PRES MLC_LAT MLC_LON MLC_CLASS MLC_WIND MLC_PRES USA_GUST BOM_GUST BOM_GUST_PER REUNION_GUST REUNION_GUST_PER USA_SEAHGT USA_SEARAD_NE USA_SEARAD_SE USA_SEARAD_SW USA_SEARAD_NW STORM_SPEED STORM_DIR
1942189N21090 1942 25 NI BB NOT_NAMED 1942-07-08 00:00:00 TS 20.7000 90.1000 main 123 112 _________O____ -1 20.7000 90.1000 TC 30 4 303
1942189N21090 1942 25 NI BB NOT_NAMED 1942-07-08 03:00:00 TS 20.7984 89.9367 main 112 94 _________PO___ -1 20.8475 89.8550 TC 30 20.7000 90.1000 1 5 303
1942189N21090 1942 25 NI BB NOT_NAMED 1942-07-08 06:00:00 TS 20.9439 89.6939 main 94 67 _________OP___ -1 21.0000 89.6000 TC 30 20.8597 89.8349 1 6 303
1942189N21090 1942 25 NI BB NOT_NAMED 1942-07-08 09:00:00 TS 21.0966 89.4381 main 63 45 _________PP___ -1 21.1575 89.3350 TC 30 21.0154 89.5755 1 5 303
1942189N21090 1942 25 NI BB NOT_NAMED 1942-07-08 12:00:00 TS 21.2317 89.2142 main 45 33 _________OP___ -1 21.3000 89.1000 TC 30 21.1634 89.3284 1 5 304
1942189N21090 1942 25 NI BB NOT_NAMED 1942-07-08 15:00:00 TS 21.3537 89.0212 main 22 11 _________PO___ -1 21.4074 88.9424 TC 30 21.3000 89.1000 1 4 304
1942189N21090 1942 25 NI BB NOT_NAMED 1942-07-08 18:00:00 TS 21.4612 88.8476 main 15 11 _________OP___ -1 21.5000 88.8000 TC 30 21.4224 88.8952 1 4 302
1942189N21090 1942 25 NI BB NOT_NAMED 1942-07-08 21:00:00 TS 21.5687 88.6524 main 11 0 _________PP___ -1 21.6075 88.5925 TC 30 21.5298 88.7123 1 4 300
1942189N21090 1942 25 NI BB NOT_NAMED 1942-07-09 00:00:00 TS 21.6612 88.4742 main 0 0 _________OP___ -1 21.7000 88.4000 TC 30 21.6224 88.5483 1 3 299
1942189N21090 1942 25 NI BB NOT_NAMED 1942-07-09 03:00:00 TS 21.7287 88.3462 main 0 0 _________PO___ -1 21.7574 88.2924 TC 30 21.7000 88.4000 1 3 299
1942189N21090 1942 25 NI BB NOT_NAMED 1942-07-09 06:00:00 TS 21.7821 88.2363 main 0 0 _________OP___ -1 21.8000 88.2000 TC 30 21.7642 88.2727 1 2 296
1942189N21090 1942 25 NI BB NOT_NAMED 1942-07-09 09:00:00 TS 21.8324 88.1111 main 10 0 _________PP___ -1 21.8500 88.0650 TC 30 21.8148 88.1573 1 3 291
1942189N21090 1942 25 NI BB NOT_NAMED 1942-07-09 12:00:00 TS 21.8790 87.9691 main 0 0 _________OP___ -1 21.9000 87.9000 TC 30 21.8579 88.0383 1 3 288
1942189N21090 1942 25 NI BB NOT_NAMED 1942-07-09 15:00:00 TS 21.9250 87.8037 main 0 0 _________PO___ -1 21.9500 87.7075 TC 30 21.9000 87.9000 1 3 288
1942189N21090 1942 25 NI BB NOT_NAMED 1942-07-09 18:00:00 TS 21.9789 87.6270 main 0 0 _________OP___ -1 22.0000 87.5000 TC 30 21.9578 87.7541 1 3 289
1942189N21090 1942 25 NI BB NOT_NAMED 1942-07-09 21:00:00 TS 22.0359 87.4563 main 0 0 _________PP___ -1 22.0573 87.3300 TC 30 22.0144 87.5826 1 4 286
1942189N21090 1942 25 NI BB NOT_NAMED 1942-07-10 00:00:00 TS 22.0819 87.2349 main 0 0 _________OP___ -1 22.1000 87.1000 TC 30 22.0639 87.3697 1 5 278
1942189N21090 1942 25 NI BB NOT_NAMED 1942-07-10 03:00:00 TS 22.1038 86.9150 main 0 0 _________PO___ -1 22.1076 86.7300 TC 30 22.1000 87.1000 1 7 272
1942189N21090 1942 25 NI BB NOT_NAMED 1942-07-10 06:00:00 TS 22.1053 86.5266 main 0 0 _________OP___ -1 22.1000 86.3000 TC 30 22.1106 86.7532 1 7 270
1942189N21090 1942 25 NI BB NOT_NAMED 1942-07-10 09:00:00 TS 22.1039 86.1261 main 0 0 _________PP___ -1 22.0999 85.9000 TC 30 22.1079 86.3522 1 8 270
1942189N21090 1942 25 NI BB NOT_NAMED 1942-07-10 12:00:00 TS 22.1006 85.7125 main 0 0 _________OP___ -1 22.1000 85.5000 TC 30 22.1012 85.9251 1 8 269
1942189N21090 1942 25 NI BB NOT_NAMED 1942-07-10 15:00:00 TS 22.0962 85.2962 main 0 0 _________PO___ -1 22.0925 85.0924 TC 30 22.1000 85.5000 1 7 270
1942189N21090 1942 25 NI BB NOT_NAMED 1942-07-10 18:00:00 TS 22.1026 84.9088 main 0 0 _________OP___ -1 22.1000 84.7000 TC 30 22.1053 85.1176 1 7 273
1942189N21090 1942 25 NI BB NOT_NAMED 1942-07-10 21:00:00 TS 22.1272 84.5461 main 0 0 _________PP___ -1 22.1348 84.3500 TC 30 22.1196 84.7422 1 7 276
1942189N21090 1942 25 NI BB NOT_NAMED 1942-07-11 00:00:00 TS 22.1745 84.1853 main 0 0 _________OP___ -1 22.2000 84.0000 TC 30 22.1491 84.3707 1 7 280
1942189N21090 1942 25 NI BB NOT_NAMED 1942-07-11 03:00:00 TS 22.2463 83.8000 main 0 0 _________PO___ -1 22.2925 83.6000 TC 30 22.2000 84.0000 1 7 283
1942189N21090 1942 25 NI BB NOT_NAMED 1942-07-11 06:00:00 TS 22.3372 83.4044 main 0 0 _________OP___ -1 22.4000 83.2000 TC 30 22.2744 83.6089 1 7 285
1942189N21090 1942 25 NI BB NOT_NAMED 1942-07-11 09:00:00 TS 22.4350 83.0276 main 0 0 _________PP___ -1 22.4999 82.8350 TC 30 22.3700 83.2202 1 7 287
1942189N21090 1942 25 NI BB NOT_NAMED 1942-07-11 12:00:00 TS 22.5403 82.6732 main 0 0 _________OP___ -1 22.6000 82.5000 TC 30 22.4807 82.8464 1 7 288
1942189N21090 1942 25 NI BB NOT_NAMED 1942-07-11 15:00:00 TS 22.6462 82.3425 main 0 0 _________PO___ -1 22.6924 82.1849 TC 30 22.6000 82.5000 1 6 290
1942189N21090 1942 25 NI BB NOT_NAMED 1942-07-11 18:00:00 TS 22.7505 82.0519 main 0 0 _________OP___ -1 22.8000 81.9000 TC 30 22.7010 82.2039 1 6 294
1942189N21090 1942 25 NI BB NOT_NAMED 1942-07-11 21:00:00 TS 22.8733 81.7958 main 0 0 _________PP___ -1 22.9348 81.6574 TC 30 22.8118 81.9343 1 5 300
1942189N21090 1942 25 NI BB NOT_NAMED 1942-07-12 00:00:00 TS 23.0209 81.5363 main 0 0 _________OP___ -1 23.1000 81.4000 TC 30 22.9417 81.6725 1 6 301
1942189N21090 1942 25 NI BB NOT_NAMED 1942-07-12 03:00:00 TS 23.1925 81.2287 main 0 0 _________PO___ -1 23.2851 81.0575 TC 30 23.1000 81.4000 1 7 302
1942189N21090 1942 25 NI BB NOT_NAMED 1942-07-12 06:00:00 TS 23.3981 80.8927 main 0 0 _________OP___ -1 23.5000 80.7000 TC 30 23.2962 81.0854 1 7 306
1942189N21090 1942 25 NI BB NOT_NAMED 1942-07-12 09:00:00 TS 23.6350 80.5751 main 0 0 _________PP___ -1 23.7499 80.3924 TC 30 23.5200 80.7577 1 8 310
1942189N21090 1942 25 NI BB NOT_NAMED 1942-07-12 12:00:00 TS 23.8794 80.2630 main 0 0 _________OP___ -1 24.0000 80.1000 TC 30 23.7587 80.4260 1 7 309
1942189N21090 1942 25 NI BB NOT_NAMED 1942-07-12 15:00:00 TS 24.1000 79.9499 main 0 0 _________PO___ -1 24.1999 79.7998 TC 30 24.0000 80.1000 1 7 308
1942189N21090 1942 25 NI BB NOT_NAMED 1942-07-12 18:00:00 TS 24.3051 79.6640 main 0 0 _________OP___ -1 24.4000 79.5000 TC 30 24.2339 79.7871 1 7 309
1942189N21090 1942 25 NI BB NOT_NAMED 1942-07-12 21:00:00 TS 24.5312 79.3714 main 0 0 _________PP___ -1 24.6376 79.2003 TC 30 24.4603 79.4855 1 7 311
1942189N21090 1942 25 NI BB NOT_NAMED 1942-07-13 00:00:00 TS 24.7544 79.0941 main 0 0 _________OP___ -1 24.9000 78.9000 TC 30 24.6816 79.1912 1 6 311
1942189N21090 1942 25 NI BB NOT_NAMED 1942-07-13 03:00:00 NR 24.9000 78.9000 main 0 __________O___ -1 TC 24.9000 78.9000 1 5 309

About IBTrACS Database

This database is a web-friendly format of International Best Track Archive for Climate Stewardship (IBTrACS), a global best track data archive curated by NOAA dating back to 1842.

Updated: 2021-10-21